createdAt,value
2018-07-20T00:04:17.142Z,99.90
2018-07-20T00:06:46.203Z,99.90
2018-07-20T00:09:15.195Z,99.90
2018-07-20T00:11:44.145Z,99.90
2018-07-20T00:14:13.139Z,99.90
2018-07-20T00:16:42.458Z,99.90
2018-07-20T00:19:11.432Z,99.90
2018-07-20T00:21:40.400Z,99.90
2018-07-20T00:24:09.465Z,99.90
2018-07-20T00:26:38.507Z,99.90
2018-07-20T00:29:07.493Z,99.90
2018-07-20T00:31:36.498Z,99.90
2018-07-20T00:36:34.455Z,99.90
2018-07-20T00:39:03.671Z,99.90
2018-07-20T00:41:32.686Z,99.90
2018-07-20T00:44:01.629Z,99.90
2018-07-20T00:46:30.624Z,99.90
2018-07-20T00:48:59.580Z,99.90
2018-07-20T00:51:28.590Z,99.90
2018-07-20T00:53:57.566Z,99.90
2018-07-20T00:56:26.567Z,99.90
2018-07-20T00:58:55.535Z,99.90
2018-07-20T01:01:24.539Z,99.90
2018-07-20T01:03:53.514Z,99.90
2018-07-20T01:06:23.432Z,99.90
2018-07-20T01:08:53.171Z,99.90
2018-07-20T01:11:23.124Z,99.90
2018-07-20T01:13:53.148Z,99.90
2018-07-20T01:18:51.644Z,99.90
2018-07-20T01:21:21.458Z,99.90
2018-07-20T01:23:50.467Z,99.90
2018-07-20T01:26:19.425Z,99.90
2018-07-20T01:28:48.458Z,99.90
2018-07-20T01:31:17.804Z,99.90
2018-07-20T01:33:46.768Z,99.90
2018-07-20T01:36:15.758Z,99.90
2018-07-20T01:38:44.751Z,99.90
2018-07-20T01:41:13.895Z,99.90
2018-07-20T01:43:42.871Z,99.90
2018-07-20T01:46:12.052Z,99.90
2018-07-20T01:51:09.770Z,99.90
2018-07-20T01:53:38.764Z,99.90
2018-07-20T01:56:07.792Z,99.90
2018-07-20T01:58:36.788Z,99.90
2018-07-20T02:01:05.799Z,99.90
2018-07-20T02:03:34.807Z,99.90
2018-07-20T02:06:03.748Z,99.90
2018-07-20T02:08:32.727Z,99.90
2018-07-20T02:11:01.930Z,99.90
2018-07-20T02:13:30.959Z,99.90
2018-07-20T02:15:59.907Z,99.90
2018-07-20T02:18:28.911Z,99.90
2018-07-20T02:20:57.923Z,99.90
2018-07-20T02:23:26.895Z,99.90
2018-07-20T02:25:55.907Z,99.90
2018-07-20T02:28:24.888Z,99.90
2018-07-20T02:30:53.878Z,99.90
2018-07-20T02:35:52.175Z,99.90
2018-07-20T02:38:21.135Z,99.90
2018-07-20T02:40:50.155Z,99.90
2018-07-20T02:43:19.182Z,99.90
2018-07-20T02:45:48.147Z,99.90
2018-07-20T02:48:17.196Z,99.90
2018-07-20T02:50:46.168Z,99.90
2018-07-20T02:53:15.172Z,99.90
2018-07-20T02:55:44.168Z,99.90
2018-07-20T02:58:13.165Z,99.90
2018-07-20T03:00:42.178Z,99.90
2018-07-20T03:03:11.235Z,99.90
2018-07-20T03:05:40.258Z,99.90
2018-07-20T03:08:09.423Z,99.90
2018-07-20T03:10:38.488Z,99.90
2018-07-20T03:13:07.654Z,99.90
2018-07-20T03:15:36.659Z,99.90
2018-07-20T03:20:34.967Z,99.90
2018-07-20T03:28:01.237Z,99.90
2018-07-20T03:30:30.176Z,99.90
2018-07-20T03:32:59.149Z,99.90
2018-07-20T03:35:28.136Z,99.90
2018-07-20T03:37:57.070Z,99.90
2018-07-20T03:45:23.843Z,99.90
2018-07-20T03:50:23.791Z,99.90
2018-07-20T03:52:52.764Z,99.90
2018-07-20T03:55:21.762Z,99.90
2018-07-20T03:57:50.732Z,99.90
2018-07-20T04:00:19.707Z,99.90
2018-07-20T04:02:48.723Z,99.90
2018-07-20T04:05:17.744Z,99.90
2018-07-20T04:10:15.450Z,99.90
2018-07-20T04:12:45.240Z,99.90
2018-07-20T04:15:14.245Z,99.90
2018-07-20T04:17:44.287Z,99.90
2018-07-20T04:20:14.851Z,99.90
2018-07-20T04:22:44.133Z,99.90
2018-07-20T04:25:13.083Z,99.90
2018-07-20T04:27:42.203Z,99.90
2018-07-20T04:30:12.755Z,99.90
2018-07-20T04:32:41.822Z,99.90
2018-07-20T04:35:11.476Z,99.90
2018-07-20T04:37:40.468Z,99.90
2018-07-20T04:40:09.486Z,99.90
2018-07-20T04:42:38.575Z,99.90
2018-07-20T04:45:08.498Z,99.90
2018-07-20T04:47:37.500Z,99.90
2018-07-20T04:50:06.559Z,99.90
2018-07-20T04:52:35.615Z,99.90
2018-07-20T04:55:04.575Z,99.90
2018-07-20T04:57:33.512Z,99.90
2018-07-20T05:00:02.556Z,99.90
2018-07-20T05:02:31.549Z,99.90
2018-07-20T05:05:00.507Z,99.90
2018-07-20T05:07:29.567Z,99.90
2018-07-20T05:09:58.574Z,99.90
2018-07-20T05:12:28.211Z,99.90
2018-07-20T05:14:57.175Z,99.90
2018-07-20T05:17:26.562Z,99.90
2018-07-20T05:19:56.460Z,99.90
2018-07-20T05:22:25.479Z,99.90
2018-07-20T05:24:54.440Z,99.90
2018-07-20T05:29:52.067Z,99.90
2018-07-20T05:32:21.071Z,99.90
2018-07-20T05:34:50.024Z,99.90
2018-07-20T05:37:19.008Z,99.90
2018-07-20T05:39:47.995Z,99.90
2018-07-20T05:42:16.972Z,99.90
2018-07-20T05:44:45.951Z,99.90
2018-07-20T05:49:43.607Z,99.90
2018-07-20T05:52:12.579Z,99.90
2018-07-20T05:54:41.622Z,99.90
2018-07-20T05:57:10.720Z,99.90
2018-07-20T05:59:39.706Z,99.90
2018-07-20T06:02:08.827Z,99.90
2018-07-20T06:04:37.828Z,99.90
2018-07-20T06:07:06.784Z,99.90
2018-07-20T06:12:04.459Z,99.90
2018-07-20T06:14:33.443Z,99.90
2018-07-20T06:17:02.465Z,99.90
2018-07-20T06:19:31.409Z,99.90
2018-07-20T06:22:00.356Z,99.90
2018-07-20T06:24:29.376Z,99.90
2018-07-20T06:26:58.294Z,99.90
2018-07-20T06:29:27.269Z,99.90
2018-07-20T06:31:57.048Z,99.90
2018-07-20T06:39:25.270Z,99.90
2018-07-20T06:41:54.409Z,99.90
2018-07-20T06:44:23.397Z,99.90
2018-07-20T06:46:52.371Z,99.90
2018-07-20T06:49:21.324Z,99.90
2018-07-20T06:51:50.312Z,99.90
2018-07-20T06:54:19.831Z,99.90
2018-07-20T06:56:48.763Z,99.90
2018-07-20T06:59:17.765Z,99.90
2018-07-20T07:01:46.741Z,99.90
2018-07-20T07:04:15.764Z,99.90
2018-07-20T07:06:44.764Z,99.90
2018-07-20T07:09:13.758Z,99.90
2018-07-20T07:11:42.815Z,99.90
2018-07-20T07:14:11.778Z,97.00
2018-07-20T07:16:40.807Z,96.50
2018-07-20T07:21:38.496Z,93.60
2018-07-20T07:29:04.918Z,91.00
2018-07-20T07:31:33.882Z,91.50
2018-07-20T07:36:31.532Z,91.90
2018-07-20T07:39:00.527Z,93.40
2018-07-20T07:41:29.514Z,94.30
2018-07-20T07:43:58.510Z,92.10
2018-07-20T07:46:27.452Z,89.30
2018-07-20T07:48:56.591Z,79.90
2018-07-20T07:51:25.556Z,79.80
2018-07-20T07:53:54.535Z,77.90
2018-07-20T07:56:23.543Z,76.30
2018-07-20T07:58:52.574Z,72.60
2018-07-20T08:01:21.607Z,72.20
2018-07-20T08:03:50.660Z,72.50
2018-07-20T08:06:19.658Z,72.60
2018-07-20T08:08:48.694Z,71.40
2018-07-20T08:11:17.715Z,74.20
2018-07-20T08:13:46.700Z,75.10
2018-07-20T08:16:15.656Z,73.20
2018-07-20T08:18:44.643Z,71.10
2018-07-20T08:21:13.694Z,69.80
2018-07-20T08:23:42.659Z,70.90
2018-07-20T08:28:40.304Z,71.70
2018-07-20T08:31:09.285Z,69.10
2018-07-20T08:33:38.316Z,70.10
2018-07-20T08:36:07.327Z,70.60
2018-07-20T08:38:36.280Z,69.90
2018-07-20T08:41:05.285Z,70.30
2018-07-20T08:43:34.277Z,68.00
2018-07-20T08:48:32.423Z,69.50
2018-07-20T08:51:01.412Z,69.90
2018-07-20T08:53:31.075Z,70.70
2018-07-20T08:56:00.072Z,70.80
2018-07-20T08:58:29.151Z,69.40
2018-07-20T09:00:58.110Z,67.70
2018-07-20T09:03:28.315Z,68.80
2018-07-20T09:05:57.579Z,70.80
2018-07-20T09:08:27.491Z,69.10
2018-07-20T09:10:57.443Z,69.20
2018-07-20T09:13:26.478Z,67.50
2018-07-20T09:15:55.518Z,68.10
2018-07-20T09:20:53.128Z,68.40
2018-07-20T09:23:22.085Z,68.80
2018-07-20T09:25:51.077Z,68.90
2018-07-20T09:28:20.085Z,69.90
2018-07-20T09:30:49.059Z,69.00
2018-07-20T09:33:18.039Z,69.40
2018-07-20T09:35:47.035Z,67.60
2018-07-20T09:38:16.010Z,67.20
2018-07-20T09:40:44.979Z,66.70
2018-07-20T09:43:13.947Z,65.80
2018-07-20T09:45:42.946Z,65.40
2018-07-20T09:48:12.024Z,66.70
2018-07-20T09:50:41.054Z,69.70
2018-07-20T09:53:10.029Z,66.10
2018-07-20T09:55:39.047Z,66.40
2018-07-20T09:58:08.036Z,65.40
2018-07-20T10:03:07.406Z,63.90
2018-07-20T10:05:36.446Z,62.50
2018-07-20T10:08:05.623Z,62.10
2018-07-20T10:10:34.616Z,62.70
2018-07-20T10:13:03.637Z,61.40
2018-07-20T10:15:32.640Z,62.20
2018-07-20T10:18:02.792Z,63.30
2018-07-20T10:20:31.831Z,62.00
2018-07-20T10:23:01.397Z,62.50
2018-07-20T10:25:30.712Z,60.50
2018-07-20T10:27:59.676Z,60.50
2018-07-20T10:30:28.679Z,60.80
2018-07-20T10:32:58.259Z,59.70
2018-07-20T10:35:28.223Z,59.90
2018-07-20T10:37:58.140Z,60.00
2018-07-20T10:40:28.004Z,60.20
2018-07-20T10:42:58.368Z,60.30
2018-07-20T10:47:56.931Z,58.50
2018-07-20T10:50:25.908Z,58.30
2018-07-20T10:55:23.562Z,58.00
2018-07-20T10:57:52.551Z,58.40
2018-07-20T11:00:21.530Z,58.20
2018-07-20T11:02:50.548Z,57.70
2018-07-20T11:05:20.434Z,57.20
2018-07-20T11:07:49.434Z,58.30
2018-07-20T11:10:19.150Z,57.30
2018-07-20T11:12:48.152Z,56.90
2018-07-20T11:15:17.214Z,57.20
2018-07-20T11:17:46.150Z,60.00
2018-07-20T11:20:15.151Z,57.60
2018-07-20T11:22:44.179Z,56.20
2018-07-20T11:27:41.851Z,57.40
2018-07-20T11:30:10.939Z,55.90
2018-07-20T11:32:39.949Z,56.70
2018-07-20T11:35:09.044Z,55.80
2018-07-20T11:37:38.075Z,56.20
2018-07-20T11:40:07.221Z,55.20
2018-07-20T11:42:36.286Z,54.60
2018-07-20T11:45:06.023Z,53.50
2018-07-20T11:47:35.036Z,55.60
2018-07-20T11:52:32.999Z,54.50
2018-07-20T11:55:02.006Z,53.90
2018-07-20T11:57:30.980Z,53.70
2018-07-20T12:00:00.121Z,52.60
2018-07-20T12:02:29.115Z,55.50
2018-07-20T12:04:59.028Z,52.70
2018-07-20T12:07:28.954Z,53.50
2018-07-20T12:09:58.790Z,55.20
2018-07-20T12:12:27.785Z,54.50
2018-07-20T12:14:56.765Z,55.80
2018-07-20T12:17:25.743Z,52.80
2018-07-20T12:19:54.720Z,52.50
2018-07-20T12:22:23.732Z,53.10
2018-07-20T12:27:21.899Z,52.50
2018-07-20T12:29:50.895Z,54.40
2018-07-20T12:32:19.852Z,52.60
2018-07-20T12:39:46.190Z,51.50
2018-07-20T12:42:15.220Z,50.50
2018-07-20T12:44:44.244Z,50.70
2018-07-20T12:49:41.997Z,51.40
2018-07-20T12:52:11.083Z,51.20
2018-07-20T12:54:40.159Z,51.60
2018-07-20T12:59:38.502Z,50.70
2018-07-20T13:02:07.545Z,51.90
2018-07-20T13:04:36.491Z,50.70
2018-07-20T13:07:05.934Z,50.90
2018-07-20T13:09:34.927Z,51.10
2018-07-20T13:12:04.015Z,51.30
2018-07-20T13:14:32.894Z,51.00
2018-07-20T13:19:30.588Z,52.00
2018-07-20T13:21:59.536Z,51.10
2018-07-20T13:24:29.416Z,52.00
2018-07-20T13:26:59.405Z,50.90
2018-07-20T13:29:29.319Z,49.30
2018-07-20T13:31:58.268Z,50.50
2018-07-20T13:42:52.355Z,51.90
2018-07-20T13:47:50.050Z,50.70
2018-07-20T13:52:47.718Z,49.50
2018-07-20T13:55:16.683Z,49.80
2018-07-20T13:57:45.691Z,50.70
2018-07-20T14:00:14.768Z,50.50
2018-07-20T14:02:43.804Z,51.20
2018-07-20T14:05:12.824Z,50.40
2018-07-20T14:07:41.850Z,50.40
2018-07-20T14:10:11.722Z,50.20
2018-07-20T14:12:41.346Z,48.80
2018-07-20T14:15:11.974Z,49.00
2018-07-20T14:17:42.277Z,49.70
2018-07-20T14:20:11.964Z,48.10
2018-07-20T14:22:40.989Z,48.70
2018-07-20T14:25:10.022Z,49.60
2018-07-20T14:27:39.373Z,49.40
2018-07-20T14:30:08.514Z,46.80
2018-07-20T14:32:38.234Z,48.80
2018-07-20T14:35:07.253Z,47.40
2018-07-20T14:37:36.232Z,46.30
2018-07-20T14:40:06.624Z,46.80
2018-07-20T14:42:35.578Z,47.70
2018-07-20T14:47:33.608Z,47.80
2018-07-20T14:50:02.567Z,48.00
2018-07-20T14:52:31.539Z,47.90
2018-07-20T14:55:00.534Z,47.80
2018-07-20T14:57:29.783Z,48.40
2018-07-20T14:59:59.708Z,48.30
2018-07-20T15:02:29.670Z,49.50
2018-07-20T15:04:58.611Z,48.10
2018-07-20T15:07:27.587Z,48.30
2018-07-20T15:09:56.615Z,48.00
2018-07-20T15:12:25.626Z,48.20
2018-07-20T15:14:54.683Z,47.90
2018-07-20T15:17:23.919Z,48.40
2018-07-20T15:19:52.960Z,48.20
2018-07-20T15:22:21.976Z,49.60
2018-07-20T15:27:19.615Z,48.00
2018-07-20T15:29:48.591Z,49.50
2018-07-20T15:34:46.267Z,47.60
2018-07-20T15:37:15.251Z,48.00
2018-07-20T15:39:44.255Z,48.30
2018-07-20T15:42:13.283Z,47.30
2018-07-20T15:44:42.327Z,48.10
2018-07-20T15:47:11.942Z,47.60
2018-07-20T15:49:40.963Z,47.30
2018-07-20T15:54:39.002Z,49.10
2018-07-20T15:57:08.215Z,48.60
2018-07-20T15:59:37.264Z,49.00
2018-07-20T16:02:06.579Z,47.00
2018-07-20T16:04:35.569Z,47.50
2018-07-20T16:07:04.605Z,46.80
2018-07-20T16:09:33.614Z,47.60
2018-07-20T16:12:02.585Z,48.30
2018-07-20T16:14:31.559Z,48.90
2018-07-20T16:17:00.570Z,49.10
2018-07-20T16:19:31.519Z,49.40
2018-07-20T16:22:00.531Z,49.80
2018-07-20T16:24:30.475Z,48.30
2018-07-20T16:27:00.355Z,50.10
2018-07-20T16:29:30.256Z,47.70
2018-07-20T16:31:59.269Z,49.10
2018-07-20T16:34:28.271Z,49.30
2018-07-20T16:36:57.263Z,49.20
2018-07-20T16:39:26.262Z,49.30
2018-07-20T16:41:55.267Z,49.50
2018-07-20T16:44:24.267Z,50.30
2018-07-20T16:46:53.247Z,48.50
2018-07-20T16:49:22.672Z,49.00
2018-07-20T16:51:51.716Z,49.60
2018-07-20T16:54:20.651Z,49.00
2018-07-20T16:56:49.696Z,49.20
2018-07-20T16:59:19.915Z,49.30
2018-07-20T17:01:48.951Z,49.60
2018-07-20T17:04:18.591Z,49.30
2018-07-20T17:09:16.196Z,49.40
2018-07-20T17:11:45.217Z,49.80
2018-07-20T17:14:14.245Z,50.10
2018-07-20T17:16:43.232Z,49.80
2018-07-20T17:19:12.248Z,50.20
2018-07-20T17:21:41.274Z,50.00
2018-07-20T17:24:10.326Z,49.70
2018-07-20T17:26:39.605Z,49.50
2018-07-20T17:29:08.647Z,49.70
2018-07-20T17:31:37.864Z,49.90
2018-07-20T17:34:06.883Z,50.10
2018-07-20T17:36:36.594Z,49.90
2018-07-20T17:39:08.207Z,51.80
2018-07-20T17:44:05.956Z,52.60
2018-07-20T17:46:35.012Z,51.60
2018-07-20T17:49:04.044Z,51.80
2018-07-20T17:51:33.093Z,52.70
2018-07-20T17:54:02.078Z,52.20
2018-07-20T17:56:31.039Z,51.90
2018-07-20T17:59:00.717Z,52.60
2018-07-20T18:01:30.584Z,53.10
2018-07-20T18:04:00.055Z,54.60
2018-07-20T18:06:29.121Z,56.20
2018-07-20T18:08:58.120Z,56.60
2018-07-20T18:11:27.176Z,56.70
2018-07-20T18:13:57.080Z,57.00
2018-07-20T18:16:26.089Z,58.40
2018-07-20T18:18:55.139Z,59.20
2018-07-20T18:21:24.132Z,59.70
2018-07-20T18:26:21.956Z,60.20
2018-07-20T18:28:50.982Z,59.70
2018-07-20T18:31:20.743Z,60.30
2018-07-20T18:33:49.844Z,60.90
2018-07-20T18:36:18.795Z,60.50
2018-07-20T18:38:48.020Z,61.60
2018-07-20T18:41:17.687Z,62.30
2018-07-20T18:46:15.384Z,62.10
2018-07-20T18:51:13.612Z,62.30
2018-07-20T18:53:42.596Z,62.50
2018-07-20T18:56:11.579Z,62.70
2018-07-20T18:58:40.630Z,62.70
2018-07-20T19:01:09.661Z,63.00
2018-07-20T19:03:38.711Z,63.60
2018-07-20T19:06:07.769Z,63.40
2018-07-20T19:08:36.856Z,63.50
2018-07-20T19:11:05.840Z,63.70
2018-07-20T19:13:34.850Z,64.10
2018-07-20T19:16:03.888Z,64.80
2018-07-20T19:18:32.895Z,64.80
2018-07-20T19:23:31.023Z,67.30
2018-07-20T19:26:00.607Z,64.90
2018-07-20T19:28:29.623Z,63.40
2018-07-20T19:30:58.644Z,63.60
2018-07-20T19:33:28.184Z,63.90
2018-07-20T19:35:57.303Z,64.00
2018-07-20T19:38:26.331Z,64.00
2018-07-20T19:40:55.432Z,64.10
2018-07-20T19:43:25.106Z,64.30
2018-07-20T19:45:54.154Z,64.40
2018-07-20T19:48:23.207Z,64.70
2018-07-20T19:50:52.270Z,64.80
2018-07-20T19:53:21.280Z,64.90
2018-07-20T19:55:50.316Z,65.10
2018-07-20T19:58:19.343Z,65.50
2018-07-20T20:00:48.316Z,65.80
2018-07-20T20:03:18.125Z,66.10
2018-07-20T20:05:47.128Z,66.20
2018-07-20T20:08:16.154Z,66.50
2018-07-20T20:10:45.203Z,66.90
2018-07-20T20:13:14.930Z,67.10
2018-07-20T20:15:44.036Z,67.20
2018-07-20T20:18:13.771Z,67.40
2018-07-20T20:20:42.788Z,67.80
2018-07-20T20:23:12.022Z,68.20
2018-07-20T20:25:41.080Z,68.10
2018-07-20T20:28:10.162Z,68.50
2018-07-20T20:30:39.251Z,68.70
2018-07-20T20:33:08.903Z,68.90
2018-07-20T20:35:38.032Z,69.30
2018-07-20T20:38:07.271Z,69.30
2018-07-20T20:40:36.671Z,69.80
2018-07-20T20:43:05.746Z,69.80
2018-07-20T20:45:34.777Z,70.20
2018-07-20T20:48:04.022Z,70.30
2018-07-20T20:50:33.754Z,70.70
2018-07-20T20:53:02.819Z,71.10
2018-07-20T20:55:32.360Z,71.30
2018-07-20T21:00:30.963Z,71.90
2018-07-20T21:02:59.992Z,72.10
2018-07-20T21:05:29.090Z,72.40
2018-07-20T21:10:26.826Z,72.80
2018-07-20T21:12:55.818Z,73.00
2018-07-20T21:15:24.852Z,73.20
2018-07-20T21:17:54.006Z,73.40
2018-07-20T21:20:23.081Z,73.60
2018-07-20T21:22:52.082Z,73.80
2018-07-20T21:25:21.066Z,74.00
2018-07-20T21:27:50.140Z,74.20
2018-07-20T21:30:19.127Z,74.60
2018-07-20T21:37:45.567Z,75.50
2018-07-20T21:40:14.607Z,75.40
2018-07-20T21:45:12.369Z,76.10
2018-07-20T21:50:39.599Z,76.20
2018-07-20T21:53:08.811Z,76.50
2018-07-20T21:58:06.728Z,77.00
2018-07-20T22:00:35.727Z,77.10
2018-07-20T22:03:04.707Z,77.40
2018-07-20T22:08:02.663Z,77.60
2018-07-20T22:20:24.519Z,77.80
2018-07-20T22:22:53.503Z,78.00
2018-07-20T22:25:22.489Z,80.40
2018-07-20T22:27:51.453Z,80.70
2018-07-20T22:30:20.438Z,80.80
2018-07-20T22:32:49.488Z,81.00
2018-07-20T22:35:18.498Z,81.10
2018-07-20T22:37:47.499Z,81.30
2018-07-20T22:40:16.516Z,81.40
2018-07-20T22:42:45.474Z,81.50
2018-07-20T22:47:43.256Z,82.20
2018-07-20T22:50:12.271Z,82.40
2018-07-20T22:52:41.525Z,82.70
2018-07-20T22:55:10.731Z,83.10
2018-07-20T22:57:40.542Z,83.30
2018-07-20T23:00:09.556Z,83.50
2018-07-20T23:02:38.572Z,83.70
2018-07-20T23:05:07.642Z,84.00
2018-07-20T23:10:05.382Z,84.50
2018-07-20T23:12:34.679Z,84.70
2018-07-20T23:15:04.990Z,84.80
2018-07-20T23:17:34.803Z,85.20
2018-07-20T23:22:33.330Z,86.20
2018-07-20T23:25:02.297Z,86.50
2018-07-20T23:27:31.262Z,87.10
2018-07-20T23:30:00.241Z,87.50
2018-07-20T23:34:57.912Z,88.40
2018-07-20T23:37:26.875Z,88.80
2018-07-20T23:39:55.843Z,89.10
2018-07-20T23:42:24.795Z,89.50
2018-07-20T23:44:53.756Z,89.80
2018-07-20T23:47:22.698Z,90.10
2018-07-20T23:49:51.958Z,90.50
2018-07-20T23:54:49.551Z,91.50
2018-07-20T23:59:47.319Z,91.60
